Time;durP1;ratioP1;P1;durP2;ratioP2;P2;SDS_P1;SDS_P2;PMS_P1;PMS_P2;Temp;Humidity;BMP_temperature;BMP_pressure;BME280_temperature;BME280_humidity;BME280_pressure;Samples;Min_cycle;Max_cycle;Signal;HPM_P1;HPM_P2
2024/01/07 00:01:26;;;;;;;20.53;15.30;;;;;;;;;;5099030;28;20521;-66
2024/01/07 00:03:53;;;;;;;26.60;16.83;;;;;;;;;;5099296;28;20531;-67
2024/01/07 00:06:19;;;;;;;24.90;16.40;;;;;;;;;;5091601;28;20505;-68
2024/01/07 00:08:47;;;;;;;22.33;15.90;;;;;;;;;;5095488;28;20535;-67
2024/01/07 00:11:13;;;;;;;23.10;15.60;;;;;;;;;;5096820;28;20508;-69
2024/01/07 00:13:40;;;;;;;26.40;19.10;;;;;;;;;;5096413;28;20496;-69
2024/01/07 00:16:06;;;;;;;25.67;17.03;;;;;;;;;;5092154;28;20475;-68
2024/01/07 00:18:34;;;;;;;24.43;16.23;;;;;;;;;;5096921;28;20501;-69
2024/01/07 00:21:00;;;;;;;25.20;16.40;;;;;;;;;;5097229;28;20585;-69
2024/01/07 00:23:27;;;;;;;21.70;14.30;;;;;;;;;;5099186;28;20538;-69
2024/01/07 00:25:54;;;;;;;24.77;15.47;;;;;;;;;;5095275;28;20523;-69
2024/01/07 00:28:21;;;;;;;21.80;15.73;;;;;;;;;;5093325;28;20451;-69
2024/01/07 00:30:47;;;;;;;23.10;15.67;;;;;;;;;;5097789;28;20482;-69
2024/01/07 00:33:14;;;;;;;26.00;16.70;;;;;;;;;;5084477;28;21137;-68
2024/01/07 00:35:41;;;;;;;21.40;14.63;;;;;;;;;;5098529;28;20585;-68
2024/01/07 00:38:08;;;;;;;23.77;16.20;;;;;;;;;;5108508;28;21183;-68
2024/01/07 00:40:34;;;;;;;24.00;16.03;;;;;;;;;;5091383;28;20482;-68
2024/01/07 00:43:00;;;;;;;22.97;16.03;;;;;;;;;;5095858;28;20538;-68
2024/01/07 00:45:27;;;;;;;22.10;16.37;;;;;;;;;;5090312;28;20836;-68
2024/01/07 00:47:54;;;;;;;26.30;16.53;;;;;;;;;;5096596;28;20914;-68
2024/01/07 00:50:21;;;;;;;26.50;17.17;;;;;;;;;;5107997;28;20479;-69
2024/01/07 00:52:48;;;;;;;26.37;17.40;;;;;;;;;;5084847;28;20511;-68
2024/01/07 00:55:15;;;;;;;23.30;16.37;;;;;;;;;;5088683;28;20504;-67
2024/01/07 00:57:42;;;;;;;23.67;16.10;;;;;;;;;;5090576;28;20474;-67
2024/01/07 01:00:08;;;;;;;25.17;16.90;;;;;;;;;;5089601;28;20533;-67
2024/01/07 01:02:35;;;;;;;23.37;14.40;;;;;;;;;;5096558;28;20480;-67
2024/01/07 01:05:02;;;;;;;25.23;15.33;;;;;;;;;;5100969;28;20466;-67
2024/01/07 01:07:28;;;;;;;22.90;15.80;;;;;;;;;;5097392;28;20499;-67
2024/01/07 01:09:56;;;;;;;23.80;16.73;;;;;;;;;;5094626;28;20553;-67
2024/01/07 01:12:22;;;;;;;21.90;14.73;;;;;;;;;;5088601;28;20458;-67
2024/01/07 01:14:49;;;;;;;20.97;14.67;;;;;;;;;;5104021;28;20578;-66
2024/01/07 01:17:15;;;;;;;19.27;13.40;;;;;;;;;;5103358;28;20495;-68
2024/01/07 01:19:42;;;;;;;24.83;15.23;;;;;;;;;;5095937;28;20527;-68
2024/01/07 01:22:08;;;;;;;22.03;15.70;;;;;;;;;;5098513;28;20515;-68
2024/01/07 01:24:34;;;;;;;20.17;14.20;;;;;;;;;;5093045;28;20893;-68
2024/01/07 01:27:02;;;;;;;22.70;14.60;;;;;;;;;;5098062;28;20519;-68
2024/01/07 01:29:29;;;;;;;23.87;14.90;;;;;;;;;;5089706;28;20458;-68
2024/01/07 01:31:55;;;;;;;26.03;15.70;;;;;;;;;;5100311;28;20485;-68
2024/01/07 01:34:22;;;;;;;17.80;14.83;;;;;;;;;;5096830;28;20459;-68
2024/01/07 01:36:48;;;;;;;20.80;14.53;;;;;;;;;;5093656;28;20582;-68
2024/01/07 01:39:14;;;;;;;18.90;12.27;;;;;;;;;;5091125;28;20509;-68
2024/01/07 01:41:41;;;;;;;19.50;13.07;;;;;;;;;;5094603;28;20503;-68
2024/01/07 01:44:08;;;;;;;20.50;13.73;;;;;;;;;;5097662;28;20489;-68
2024/01/07 01:46:36;;;;;;;19.50;13.50;;;;;;;;;;5100383;28;20556;-68
2024/01/07 01:49:03;;;;;;;17.87;12.33;;;;;;;;;;5089944;28;20470;-67
2024/01/07 01:51:29;;;;;;;19.70;13.33;;;;;;;;;;5095619;28;20960;-67
2024/01/07 01:53:57;;;;;;;17.40;12.10;;;;;;;;;;5101739;28;20511;-67
2024/01/07 01:56:25;;;;;;;20.67;13.43;;;;;;;;;;5095831;28;20455;-67
2024/01/07 01:58:51;;;;;;;20.03;12.67;;;;;;;;;;5096973;28;20468;-67
2024/01/07 02:01:19;;;;;;;18.67;13.43;;;;;;;;;;5097830;28;20582;-67
2024/01/07 02:03:46;;;;;;;21.07;14.20;;;;;;;;;;5100541;28;20485;-67
2024/01/07 02:06:12;;;;;;;19.37;12.90;;;;;;;;;;5090966;28;20838;-68
2024/01/07 02:08:39;;;;;;;16.60;13.30;;;;;;;;;;5086862;28;20448;-68
2024/01/07 02:11:15;;;;;;;20.90;15.47;;;;;;;;;;5093847;28;20452;-68
2024/01/07 02:13:42;;;;;;;20.33;13.00;;;;;;;;;;5100011;28;20455;-68
2024/01/07 02:16:08;;;;;;;17.83;13.30;;;;;;;;;;5100935;28;20542;-67
2024/01/07 02:18:36;;;;;;;15.80;12.00;;;;;;;;;;5099773;28;20482;-68
2024/01/07 02:21:03;;;;;;;21.07;13.00;;;;;;;;;;5085514;28;20516;-67
2024/01/07 02:23:29;;;;;;;19.80;13.50;;;;;;;;;;5093324;28;20482;-68
2024/01/07 02:25:57;;;;;;;20.67;14.27;;;;;;;;;;5095656;28;20495;-67
2024/01/07 02:28:23;;;;;;;17.10;12.83;;;;;;;;;;5092860;28;20455;-67
2024/01/07 02:30:49;;;;;;;18.17;12.50;;;;;;;;;;5092505;28;20444;-67
2024/01/07 02:33:16;;;;;;;15.63;12.20;;;;;;;;;;5098191;28;20474;-67
2024/01/07 02:35:42;;;;;;;18.93;12.23;;;;;;;;;;5097134;28;20572;-67
2024/01/07 02:38:09;;;;;;;16.73;12.10;;;;;;;;;;5092482;28;20487;-68
2024/01/07 02:40:35;;;;;;;17.50;12.03;;;;;;;;;;5094776;28;20570;-69
2024/01/07 02:43:03;;;;;;;15.00;11.60;;;;;;;;;;5090455;28;20518;-69
2024/01/07 02:45:29;;;;;;;18.30;12.50;;;;;;;;;;5091867;28;20487;-69
2024/01/07 02:47:55;;;;;;;19.17;12.53;;;;;;;;;;5097771;28;20455;-69
2024/01/07 02:50:22;;;;;;;15.83;11.30;;;;;;;;;;5103420;28;20519;-68
2024/01/07 02:52:48;;;;;;;18.40;11.90;;;;;;;;;;5091849;28;20514;-67
2024/01/07 02:55:15;;;;;;;15.53;11.70;;;;;;;;;;5092681;28;20486;-69
2024/01/07 02:57:41;;;;;;;18.60;11.37;;;;;;;;;;5086527;28;20515;-68
2024/01/07 03:00:10;;;;;;;18.47;14.30;;;;;;;;;;5098775;28;20550;-67
2024/01/07 03:02:36;;;;;;;18.67;12.20;;;;;;;;;;5087568;28;20590;-67
2024/01/07 03:05:03;;;;;;;16.53;12.33;;;;;;;;;;5089357;28;20449;-68
2024/01/07 03:07:29;;;;;;;17.10;12.20;;;;;;;;;;5083875;28;20945;-68
2024/01/07 03:09:56;;;;;;;18.87;13.70;;;;;;;;;;5090172;28;20497;-67
2024/01/07 03:12:22;;;;;;;18.13;12.00;;;;;;;;;;5102893;28;20510;-67
2024/01/07 03:14:48;;;;;;;15.97;13.00;;;;;;;;;;5103864;28;20460;-69
2024/01/07 03:17:17;;;;;;;18.30;14.20;;;;;;;;;;5102778;28;20495;-68
2024/01/07 03:19:43;;;;;;;17.07;12.80;;;;;;;;;;5094452;28;20485;-68
2024/01/07 03:22:09;;;;;;;19.30;12.47;;;;;;;;;;5102026;28;20568;-69
2024/01/07 03:24:36;;;;;;;17.70;12.10;;;;;;;;;;5098204;28;20459;-68
2024/01/07 03:27:02;;;;;;;16.67;12.97;;;;;;;;;;5096939;28;20478;-68
2024/01/07 03:29:29;;;;;;;21.07;11.27;;;;;;;;;;5095589;28;20482;-68
2024/01/07 03:31:55;;;;;;;13.63;9.80;;;;;;;;;;5088215;28;20527;-68
2024/01/07 03:34:23;;;;;;;16.60;12.53;;;;;;;;;;5098607;28;20473;-67
2024/01/07 03:36:49;;;;;;;13.63;10.50;;;;;;;;;;5093113;28;20495;-68
2024/01/07 03:39:15;;;;;;;13.83;10.07;;;;;;;;;;5095746;28;20937;-69
2024/01/07 03:41:42;;;;;;;14.37;10.77;;;;;;;;;;5098814;28;20505;-66
2024/01/07 03:44:08;;;;;;;12.03;9.47;;;;;;;;;;5096448;28;20486;-67
2024/01/07 03:46:35;;;;;;;17.90;10.40;;;;;;;;;;5106916;28;20490;-67
2024/01/07 03:49:01;;;;;;;10.83;9.47;;;;;;;;;;5106257;28;20518;-67
2024/01/07 03:51:29;;;;;;;14.80;11.10;;;;;;;;;;5094928;28;21015;-67
2024/01/07 03:53:55;;;;;;;14.03;11.30;;;;;;;;;;5096381;28;20547;-68
2024/01/07 03:56:21;;;;;;;16.53;12.50;;;;;;;;;;5098127;28;20511;-67
2024/01/07 03:58:48;;;;;;;17.00;12.10;;;;;;;;;;5099232;28;20482;-67
2024/01/07 04:01:16;;;;;;;15.37;11.80;;;;;;;;;;5104702;28;20553;-69
2024/01/07 04:03:43;;;;;;;14.37;10.60;;;;;;;;;;5098598;28;20541;-68
2024/01/07 04:06:09;;;;;;;16.07;11.40;;;;;;;;;;5094651;28;20979;-68
2024/01/07 04:08:37;;;;;;;14.93;11.80;;;;;;;;;;5101442;28;20506;-68
2024/01/07 04:11:03;;;;;;;21.20;12.07;;;;;;;;;;5093771;28;20450;-68
2024/01/07 04:13:30;;;;;;;17.27;11.40;;;;;;;;;;5103461;28;20481;-68
2024/01/07 04:15:56;;;;;;;16.83;10.80;;;;;;;;;;5096249;28;20534;-67
2024/01/07 04:18:23;;;;;;;18.17;12.70;;;;;;;;;;5091929;28;20448;-67
2024/01/07 04:20:49;;;;;;;18.87;11.83;;;;;;;;;;5100644;28;20534;-67
2024/01/07 04:23:17;;;;;;;24.23;13.57;;;;;;;;;;5097498;28;20506;-66
2024/01/07 04:25:45;;;;;;;16.30;11.30;;;;;;;;;;5096259;28;20277;-67
2024/01/07 04:28:11;;;;;;;17.37;12.17;;;;;;;;;;5104909;28;20485;-68
2024/01/07 04:30:38;;;;;;;21.25;11.40;;;;;;;;;;5098817;28;20515;-69
2024/01/07 04:33:04;;;;;;;21.87;12.43;;;;;;;;;;5101736;28;20343;-68
2024/01/07 04:35:31;;;;;;;20.23;12.68;;;;;;;;;;5097722;28;20558;-68
2024/01/07 04:37:57;;;;;;;21.87;12.57;;;;;;;;;;5094690;28;20270;-68
2024/01/07 04:40:23;;;;;;;28.60;13.20;;;;;;;;;;5089170;28;20558;-68
2024/01/07 04:42:51;;;;;;;19.97;12.77;;;;;;;;;;5095321;28;20538;-68
2024/01/07 04:45:18;;;;;;;20.83;14.23;;;;;;;;;;5098511;28;20474;-68
2024/01/07 04:47:44;;;;;;;19.20;13.50;;;;;;;;;;5097554;28;21026;-68
2024/01/07 04:50:11;;;;;;;21.63;13.20;;;;;;;;;;5098700;28;20960;-67
2024/01/07 04:52:37;;;;;;;21.97;13.90;;;;;;;;;;5097705;28;20455;-66
2024/01/07 04:55:04;;;;;;;27.65;14.88;;;;;;;;;;5088513;28;20451;-66
2024/01/07 04:57:30;;;;;;;19.70;12.00;;;;;;;;;;5091594;28;20347;-66
2024/01/07 04:59:58;;;;;;;21.37;13.43;;;;;;;;;;5088413;28;20450;-67
2024/01/07 05:02:24;;;;;;;17.83;12.47;;;;;;;;;;5097595;28;20505;-67
2024/01/07 05:04:51;;;;;;;19.37;13.20;;;;;;;;;;5097212;28;20545;-66
2024/01/07 05:07:17;;;;;;;18.90;12.70;;;;;;;;;;5091034;28;21191;-65
2024/01/07 05:09:43;;;;;;;25.10;14.40;;;;;;;;;;5099035;28;20538;-66
2024/01/07 05:12:10;;;;;;;18.20;13.13;;;;;;;;;;5089608;28;20509;-66
2024/01/07 05:14:37;;;;;;;15.47;11.43;;;;;;;;;;5101963;28;20515;-66
2024/01/07 05:17:05;;;;;;;20.00;12.10;;;;;;;;;;5103763;28;20457;-65
2024/01/07 05:19:31;;;;;;;14.80;12.20;;;;;;;;;;5099302;28;20197;-67
2024/01/07 05:21:59;;;;;;;12.50;10.80;;;;;;;;;;5091744;28;20563;-65
2024/01/07 05:24:25;;;;;;;16.37;13.10;;;;;;;;;;5084343;28;20485;-65
2024/01/07 05:26:51;;;;;;;14.00;10.20;;;;;;;;;;5092866;28;20469;-65
2024/01/07 05:29:18;;;;;;;14.35;10.75;;;;;;;;;;5090852;28;20550;-65
2024/01/07 05:31:44;;;;;;;21.60;10.97;;;;;;;;;;5101705;28;20233;-66
2024/01/07 05:34:12;;;;;;;10.67;9.63;;;;;;;;;;5099466;28;20473;-65
2024/01/07 05:36:38;;;;;;;12.50;10.00;;;;;;;;;;5103393;28;20494;-66
2024/01/07 05:39:06;;;;;;;13.47;10.00;;;;;;;;;;5092046;28;20543;-66
2024/01/07 05:41:32;;;;;;;14.27;9.80;;;;;;;;;;5093173;28;20474;-66
2024/01/07 05:43:59;;;;;;;15.70;10.97;;;;;;;;;;5095803;28;20523;-65
2024/01/07 05:46:25;;;;;;;14.77;11.47;;;;;;;;;;5099092;28;20913;-65
2024/01/07 05:48:52;;;;;;;11.60;9.17;;;;;;;;;;5095910;28;20522;-65
2024/01/07 05:51:19;;;;;;;12.03;9.93;;;;;;;;;;5097714;28;20548;-64
2024/01/07 05:53:46;;;;;;;14.10;10.17;;;;;;;;;;5095740;28;20531;-64
2024/01/07 05:56:12;;;;;;;10.70;8.90;;;;;;;;;;5100035;28;20462;-64
2024/01/07 05:58:39;;;;;;;13.20;9.87;;;;;;;;;;5095580;28;20677;-65
2024/01/07 06:01:07;;;;;;;10.90;8.68;;;;;;;;;;5097028;28;20511;-64
2024/01/07 06:03:33;;;;;;;10.40;9.20;;;;;;;;;;5088271;28;20217;-64
2024/01/07 06:06:00;;;;;;;13.13;9.67;;;;;;;;;;5098587;28;21031;-64
2024/01/07 06:08:27;;;;;;;9.45;8.45;;;;;;;;;;5099946;28;20430;-65
2024/01/07 06:10:54;;;;;;;13.60;10.30;;;;;;;;;;5094271;28;20922;-65
2024/01/07 06:13:20;;;;;;;13.80;10.80;;;;;;;;;;5098681;28;20540;-64
2024/01/07 06:15:46;;;;;;;11.00;8.73;;;;;;;;;;5094386;28;20472;-64
2024/01/07 06:18:13;;;;;;;11.63;10.43;;;;;;;;;;5104504;28;20481;-65
2024/01/07 06:20:40;;;;;;;10.73;9.38;;;;;;;;;;5090728;28;20481;-65
2024/01/07 06:23:06;;;;;;;13.97;10.07;;;;;;;;;;5099273;28;20212;-64
2024/01/07 06:25:34;;;;;;;10.50;9.40;;;;;;;;;;5091659;28;20540;-64
2024/01/07 06:28:00;;;;;;;12.75;9.48;;;;;;;;;;5091435;28;20292;-64
2024/01/07 06:30:27;;;;;;;14.87;9.60;;;;;;;;;;5097532;28;20877;-64
2024/01/07 06:32:53;;;;;;;9.32;8.43;;;;;;;;;;5093379;28;20464;-64
2024/01/07 06:35:19;;;;;;;11.05;9.15;;;;;;;;;;5088953;28;20269;-64
2024/01/07 06:37:46;;;;;;;13.93;9.25;;;;;;;;;;5109839;28;20208;-65
2024/01/07 06:40:12;;;;;;;14.00;9.40;;;;;;;;;;5102560;28;20282;-65
2024/01/07 06:42:40;;;;;;;11.77;9.20;;;;;;;;;;5100600;28;20538;-64
2024/01/07 06:45:10;;;;;;;9.33;8.43;;;;;;;;;;5092653;28;20451;-64
2024/01/07 06:47:36;;;;;;;12.63;8.63;;;;;;;;;;5094981;28;20558;-65
2024/01/07 06:50:03;;;;;;;10.63;7.87;;;;;;;;;;5095040;28;21004;-64
2024/01/07 06:52:29;;;;;;;9.65;7.85;;;;;;;;;;5105405;28;20539;-64
2024/01/07 06:54:56;;;;;;;8.93;7.78;;;;;;;;;;5097298;28;20214;-64
2024/01/07 06:57:22;;;;;;;9.83;7.23;;;;;;;;;;5105627;28;20268;-65
2024/01/07 06:59:50;;;;;;;10.20;8.40;;;;;;;;;;5104650;28;20533;-65
2024/01/07 07:02:16;;;;;;;11.38;8.35;;;;;;;;;;5103269;28;20238;-64
2024/01/07 07:04:42;;;;;;;12.13;8.90;;;;;;;;;;5100972;28;20591;-64
2024/01/07 07:07:09;;;;;;;10.20;8.57;;;;;;;;;;5103808;28;20458;-64
2024/01/07 07:09:35;;;;;;;17.93;7.60;;;;;;;;;;5094033;28;20478;-64
2024/01/07 07:12:02;;;;;;;8.77;7.80;;;;;;;;;;5099625;28;20495;-65
2024/01/07 07:14:28;;;;;;;7.10;6.50;;;;;;;;;;5109519;28;20447;-65
2024/01/07 07:16:57;;;;;;;8.27;7.43;;;;;;;;;;5101387;28;20215;-65
2024/01/07 07:19:23;;;;;;;7.73;6.93;;;;;;;;;;5099612;28;20516;-64
2024/01/07 07:21:49;;;;;;;8.02;7.28;;;;;;;;;;5108028;28;20538;-65
2024/01/07 07:24:16;;;;;;;8.83;7.17;;;;;;;;;;5095122;28;20253;-65
2024/01/07 07:26:42;;;;;;;7.30;6.70;;;;;;;;;;5101442;28;20542;-64
2024/01/07 07:29:09;;;;;;;8.10;7.40;;;;;;;;;;5105996;28;20469;-64
2024/01/07 07:31:36;;;;;;;8.20;7.40;;;;;;;;;;5099578;28;20498;-64
2024/01/07 07:34:04;;;;;;;7.07;6.47;;;;;;;;;;5107358;28;20466;-64
2024/01/07 07:36:30;;;;;;;8.95;6.57;;;;;;;;;;5096074;28;20240;-64
2024/01/07 07:38:57;;;;;;;9.13;6.00;;;;;;;;;;5105272;28;20201;-64
2024/01/07 07:41:23;;;;;;;6.90;6.30;;;;;;;;;;5100475;28;20268;-65
2024/01/07 07:43:49;;;;;;;7.53;6.83;;;;;;;;;;5111790;28;20219;-65
2024/01/07 07:46:16;;;;;;;8.63;8.03;;;;;;;;;;5114007;28;20469;-65
2024/01/07 07:48:42;;;;;;;8.55;7.68;;;;;;;;;;5103359;28;20510;-64
2024/01/07 07:51:10;;;;;;;8.15;7.38;;;;;;;;;;5100982;28;20299;-65
2024/01/07 07:53:38;;;;;;;7.90;7.22;;;;;;;;;;5103611;28;20197;-65
2024/01/07 07:56:05;;;;;;;6.90;6.20;;;;;;;;;;5104095;28;20269;-65
2024/01/07 07:58:32;;;;;;;8.53;7.73;;;;;;;;;;5095376;28;20467;-64
2024/01/07 08:00:58;;;;;;;7.90;7.20;;;;;;;;;;5098430;28;20487;-64
2024/01/07 08:03:24;;;;;;;8.27;7.40;;;;;;;;;;5108125;28;20554;-65
2024/01/07 08:05:51;;;;;;;7.38;6.78;;;;;;;;;;5107634;28;20489;-64
2024/01/07 08:08:18;;;;;;;8.17;7.03;;;;;;;;;;5090465;28;20236;-64
2024/01/07 08:10:45;;;;;;;8.50;7.80;;;;;;;;;;5087405;28;20483;-64
2024/01/07 08:13:11;;;;;;;7.03;6.63;;;;;;;;;;5092116;28;20514;-65
2024/01/07 08:15:38;;;;;;;8.90;8.17;;;;;;;;;;5096757;28;20749;-64
2024/01/07 08:18:04;;;;;;;7.07;6.47;;;;;;;;;;5102757;28;20940;-64
2024/01/07 08:20:31;;;;;;;6.57;5.97;;;;;;;;;;5101737;28;20482;-64
2024/01/07 08:22:57;;;;;;;7.37;6.87;;;;;;;;;;5090087;28;20265;-64
2024/01/07 08:25:25;;;;;;;7.73;7.13;;;;;;;;;;5089760;28;20516;-64
2024/01/07 08:27:51;;;;;;;6.87;6.27;;;;;;;;;;5091987;28;21035;-64
2024/01/07 08:30:18;;;;;;;6.60;6.10;;;;;;;;;;5101722;28;20509;-64
2024/01/07 08:32:44;;;;;;;7.53;6.83;;;;;;;;;;5098526;28;20538;-65
2024/01/07 08:35:11;;;;;;;8.27;7.67;;;;;;;;;;5088525;28;20529;-65
2024/01/07 08:37:37;;;;;;;7.38;6.88;;;;;;;;;;5090051;28;20885;-65
2024/01/07 08:40:04;;;;;;;8.40;7.73;;;;;;;;;;5094820;28;20243;-64
2024/01/07 08:42:32;;;;;;;7.90;7.30;;;;;;;;;;5095626;28;20534;-65
2024/01/07 08:45:00;;;;;;;6.93;6.43;;;;;;;;;;5107774;28;20493;-64
2024/01/07 08:47:28;;;;;;;7.83;7.20;;;;;;;;;;5098727;28;20455;-64
2024/01/07 08:49:54;;;;;;;8.20;7.60;;;;;;;;;;5089852;28;20450;-65
2024/01/07 08:52:21;;;;;;;7.30;6.80;;;;;;;;;;5097443;28;21088;-65
2024/01/07 08:54:47;;;;;;;7.33;6.80;;;;;;;;;;5091833;28;20474;-64
2024/01/07 08:57:15;;;;;;;8.93;8.17;;;;;;;;;;5096139;28;20490;-64
2024/01/07 08:59:43;;;;;;;8.53;7.83;;;;;;;;;;5099684;28;20858;-65
2024/01/07 09:02:09;;;;;;;7.20;6.67;;;;;;;;;;5103845;28;20474;-65
2024/01/07 09:04:36;;;;;;;8.57;7.90;;;;;;;;;;5092723;28;20522;-65
2024/01/07 09:07:02;;;;;;;8.60;7.90;;;;;;;;;;5098873;28;20458;-64
2024/01/07 09:09:29;;;;;;;7.78;6.97;;;;;;;;;;5101970;28;21011;-65
2024/01/07 09:11:57;;;;;;;8.70;8.00;;;;;;;;;;5102271;28;20301;-64
2024/01/07 09:14:25;;;;;;;8.07;7.38;;;;;;;;;;5096566;28;21141;-64
2024/01/07 09:16:53;;;;;;;7.18;6.78;;;;;;;;;;5101331;28;20227;-64
2024/01/07 09:19:19;;;;;;;7.57;7.10;;;;;;;;;;5087212;28;20209;-64
2024/01/07 09:21:46;;;;;;;7.40;6.90;;;;;;;;;;5098097;28;20486;-64
2024/01/07 09:24:12;;;;;;;7.60;7.00;;;;;;;;;;5084538;28;20555;-65
2024/01/07 09:26:38;;;;;;;8.60;6.80;;;;;;;;;;5097844;28;20270;-65
2024/01/07 09:29:05;;;;;;;7.50;6.83;;;;;;;;;;5091317;28;20939;-64
2024/01/07 09:31:31;;;;;;;7.30;6.80;;;;;;;;;;5092785;28;20577;-64
2024/01/07 09:33:59;;;;;;;7.88;7.28;;;;;;;;;;5096314;28;20574;-64
2024/01/07 09:36:25;;;;;;;7.32;6.93;;;;;;;;;;5091546;28;20241;-65
2024/01/07 09:38:53;;;;;;;6.82;6.32;;;;;;;;;;5107041;28;20311;-66
2024/01/07 09:41:20;;;;;;;6.37;6.00;;;;;;;;;;5106786;28;20215;-64
2024/01/07 09:43:46;;;;;;;8.38;7.70;;;;;;;;;;5099909;28;20515;-64
2024/01/07 09:46:14;;;;;;;7.38;6.82;;;;;;;;;;5102471;28;20310;-64
2024/01/07 09:48:40;;;;;;;8.97;8.37;;;;;;;;;;5091416;28;20231;-64
2024/01/07 09:51:10;;;;;;;6.97;6.57;;;;;;;;;;5094015;28;20990;-64
2024/01/07 09:53:38;;;;;;;7.38;6.97;;;;;;;;;;5106372;28;20197;-64
2024/01/07 09:56:08;;;;;;;7.22;6.72;;;;;;;;;;5102931;28;20232;-64
2024/01/07 09:58:35;;;;;;;8.05;7.65;;;;;;;;;;5107393;28;20244;-65
2024/01/07 10:01:01;;;;;;;7.78;7.10;;;;;;;;;;5088896;28;20268;-65
2024/01/07 10:03:28;;;;;;;7.73;7.03;;;;;;;;;;5095087;28;20224;-65
2024/01/07 10:05:54;;;;;;;7.60;7.10;;;;;;;;;;5100510;28;20482;-65
2024/01/07 10:08:22;;;;;;;7.80;7.20;;;;;;;;;;5090402;28;20237;-65
2024/01/07 10:10:49;;;;;;;7.93;7.43;;;;;;;;;;5099544;28;20619;-65
2024/01/07 10:13:16;;;;;;;7.77;7.27;;;;;;;;;;5103840;28;20192;-66
2024/01/07 10:15:42;;;;;;;7.90;7.40;;;;;;;;;;5099204;28;20549;-66
2024/01/07 10:18:08;;;;;;;11.48;10.80;;;;;;;;;;5105395;28;20475;-66
2024/01/07 10:20:35;;;;;;;13.63;12.75;;;;;;;;;;5105144;28;20752;-66
2024/01/07 10:23:02;;;;;;;13.60;13.00;;;;;;;;;;5105804;28;20272;-66
2024/01/07 10:25:31;;;;;;;12.73;12.13;;;;;;;;;;5094936;28;20467;-66
2024/01/07 10:27:59;;;;;;;10.70;10.20;;;;;;;;;;5096280;28;20459;-65
2024/01/07 10:30:26;;;;;;;7.47;7.00;;;;;;;;;;5093150;28;20451;-66
2024/01/07 10:32:56;;;;;;;7.03;6.53;;;;;;;;;;5097696;28;20475;-66
2024/01/07 10:35:22;;;;;;;7.70;7.30;;;;;;;;;;5103914;28;20513;-65
2024/01/07 10:37:49;;;;;;;9.60;9.10;;;;;;;;;;5096119;28;20519;-66
2024/01/07 10:40:15;;;;;;;11.77;11.07;;;;;;;;;;5089653;28;20456;-66
2024/01/07 10:42:43;;;;;;;16.27;14.63;;;;;;;;;;5103857;28;20449;-66
2024/01/07 10:45:10;;;;;;;12.75;11.98;;;;;;;;;;5094669;28;20554;-66
2024/01/07 10:47:37;;;;;;;13.27;12.57;;;;;;;;;;5089264;28;20396;-66
2024/01/07 10:50:04;;;;;;;11.50;10.80;;;;;;;;;;5098478;28;20446;-66
2024/01/07 10:52:30;;;;;;;14.87;13.57;;;;;;;;;;5084710;28;20476;-66
2024/01/07 10:54:57;;;;;;;12.40;11.50;;;;;;;;;;5088809;28;20459;-66
2024/01/07 10:57:28;;;;;;;12.47;11.67;;;;;;;;;;5096481;28;20845;-66
2024/01/07 10:59:57;;;;;;;9.60;8.90;;;;;;;;;;5108881;28;20563;-66
2024/01/07 11:02:24;;;;;;;9.50;9.00;;;;;;;;;;5088744;28;21042;-66
2024/01/07 11:04:52;;;;;;;10.00;9.40;;;;;;;;;;5096300;28;21008;-65
2024/01/07 11:07:22;;;;;;;10.07;9.37;;;;;;;;;;5097503;28;20476;-66
2024/01/07 11:09:55;;;;;;;13.10;12.13;;;;;;;;;;5099068;28;20486;-66
2024/01/07 11:12:22;;;;;;;11.40;10.60;;;;;;;;;;5099902;28;20446;-66
2024/01/07 11:14:52;;;;;;;11.03;10.43;;;;;;;;;;5096435;28;20516;-66
2024/01/07 11:17:40;;;;;;;13.10;12.20;;;;;;;;;;5094789;28;20485;-66
2024/01/07 11:20:08;;;;;;;10.35;9.85;;;;;;;;;;5098163;28;20450;-65
2024/01/07 11:22:34;;;;;;;9.00;8.50;;;;;;;;;;5098866;28;20220;-66
2024/01/07 11:25:01;;;;;;;11.50;10.80;;;;;;;;;;5088433;28;20577;-66
2024/01/07 11:27:30;;;;;;;9.73;9.07;;;;;;;;;;5091064;28;20455;-66
2024/01/07 11:29:57;;;;;;;12.30;11.47;;;;;;;;;;5089389;28;20461;-66
2024/01/07 11:32:26;;;;;;;10.87;10.07;;;;;;;;;;5101763;28;20459;-65
2024/01/07 11:34:54;;;;;;;9.27;8.57;;;;;;;;;;5093937;28;20494;-66
2024/01/07 11:37:20;;;;;;;11.30;10.60;;;;;;;;;;5099521;28;20494;-65
2024/01/07 11:39:47;;;;;;;9.27;8.63;;;;;;;;;;5102468;28;20478;-66
2024/01/07 11:42:14;;;;;;;12.10;11.17;;;;;;;;;;5106331;28;20452;-65
2024/01/07 11:44:45;;;;;;;12.50;11.63;;;;;;;;;;5097118;28;20510;-65
2024/01/07 11:47:12;;;;;;;10.20;9.43;;;;;;;;;;5094698;28;21033;-65
2024/01/07 11:49:40;;;;;;;12.10;11.30;;;;;;;;;;5103870;28;20460;-66
2024/01/07 11:52:09;;;;;;;12.73;11.80;;;;;;;;;;5094153;28;20534;-65
2024/01/07 11:54:35;;;;;;;9.33;8.73;;;;;;;;;;5101539;28;20442;-66
2024/01/07 11:57:02;;;;;;;10.37;9.47;;;;;;;;;;5096862;28;20467;-65
2024/01/07 11:59:29;;;;;;;8.75;8.15;;;;;;;;;;5092238;28;20524;-66
2024/01/07 12:01:56;;;;;;;9.40;8.67;;;;;;;;;;5100659;28;20272;-66
2024/01/07 12:04:22;;;;;;;9.00;8.40;;;;;;;;;;5096042;28;20474;-66
2024/01/07 12:06:49;;;;;;;9.30;8.50;;;;;;;;;;5093105;28;20522;-66
2024/01/07 12:09:17;;;;;;;9.80;9.10;;;;;;;;;;5102567;28;20439;-65
2024/01/07 12:11:44;;;;;;;10.00;9.30;;;;;;;;;;5087846;28;20780;-66
2024/01/07 12:14:11;;;;;;;10.87;10.10;;;;;;;;;;5090988;28;20480;-64
2024/01/07 12:16:38;;;;;;;10.23;9.50;;;;;;;;;;5083140;28;20494;-63
2024/01/07 12:19:04;;;;;;;10.17;9.47;;;;;;;;;;5087502;28;20664;-66
2024/01/07 12:21:31;;;;;;;9.20;8.60;;;;;;;;;;5085144;28;20451;-65
2024/01/07 12:23:58;;;;;;;9.70;9.07;;;;;;;;;;5089609;28;20562;-63
2024/01/07 12:26:28;;;;;;;8.93;8.33;;;;;;;;;;5093684;28;20825;-63
2024/01/07 12:28:55;;;;;;;8.40;7.70;;;;;;;;;;5092703;28;20467;-65
2024/01/07 12:31:22;;;;;;;9.07;8.07;;;;;;;;;;5091490;28;20446;-65
2024/01/07 12:33:48;;;;;;;7.70;7.20;;;;;;;;;;5089692;28;21112;-65
2024/01/07 12:36:15;;;;;;;9.90;9.20;;;;;;;;;;5086318;28;20491;-63
2024/01/07 12:38:42;;;;;;;7.57;7.03;;;;;;;;;;5089664;28;20447;-64
2024/01/07 12:41:08;;;;;;;8.63;8.20;;;;;;;;;;5088449;28;20505;-64
2024/01/07 12:43:36;;;;;;;7.67;7.20;;;;;;;;;;5089705;28;20443;-67
2024/01/07 12:46:05;;;;;;;6.77;6.37;;;;;;;;;;5093764;28;20551;-66
2024/01/07 12:48:31;;;;;;;6.90;6.30;;;;;;;;;;5093543;28;20523;-66
2024/01/07 12:50:58;;;;;;;9.07;8.57;;;;;;;;;;5095012;28;20566;-67
2024/01/07 12:53:24;;;;;;;13.10;12.00;;;;;;;;;;5098773;28;21030;-67
2024/01/07 12:55:50;;;;;;;12.40;11.63;;;;;;;;;;5102568;28;20518;-66
2024/01/07 12:58:17;;;;;;;13.63;12.77;;;;;;;;;;5098821;28;20544;-65
2024/01/07 13:00:45;;;;;;;13.10;12.30;;;;;;;;;;5087821;28;20994;-64
2024/01/07 13:03:17;;;;;;;13.17;12.27;;;;;;;;;;5091160;28;20550;-65
2024/01/07 13:05:43;;;;;;;14.30;13.10;;;;;;;;;;5093146;28;20482;-65
2024/01/07 13:08:09;;;;;;;12.37;11.47;;;;;;;;;;5085984;28;20507;-64
2024/01/07 13:10:36;;;;;;;11.77;11.07;;;;;;;;;;5087940;28;20466;-64
2024/01/07 13:13:03;;;;;;;11.40;10.50;;;;;;;;;;5094288;28;20489;-64
2024/01/07 13:15:29;;;;;;;11.63;10.93;;;;;;;;;;5087876;28;20455;-64
2024/01/07 13:17:57;;;;;;;12.00;11.37;;;;;;;;;;5096955;28;20471;-64
2024/01/07 13:20:23;;;;;;;11.77;11.17;;;;;;;;;;5093129;28;20517;-65
2024/01/07 13:22:50;;;;;;;12.53;11.70;;;;;;;;;;5094289;28;20482;-63
2024/01/07 13:25:16;;;;;;;12.80;11.93;;;;;;;;;;5089115;28;20546;-65
2024/01/07 13:27:43;;;;;;;13.70;12.73;;;;;;;;;;5090468;28;20556;-64
2024/01/07 13:30:10;;;;;;;12.47;11.27;;;;;;;;;;5098343;28;20449;-64
2024/01/07 13:32:37;;;;;;;12.47;11.80;;;;;;;;;;5097569;28;20454;-64
2024/01/07 13:35:05;;;;;;;14.60;13.20;;;;;;;;;;5107047;28;20516;-64
2024/01/07 13:37:32;;;;;;;12.10;11.20;;;;;;;;;;5099593;28;20478;-64
2024/01/07 13:39:58;;;;;;;13.70;12.80;;;;;;;;;;5087094;28;20467;-63
2024/01/07 13:42:25;;;;;;;12.20;11.40;;;;;;;;;;5091614;28;20498;-63
2024/01/07 13:44:51;;;;;;;12.93;12.03;;;;;;;;;;5092863;28;20574;-63
2024/01/07 13:47:17;;;;;;;11.67;10.97;;;;;;;;;;5097723;28;20515;-64
2024/01/07 13:49:44;;;;;;;12.83;12.03;;;;;;;;;;5089798;28;20474;-64
2024/01/07 13:52:12;;;;;;;12.43;11.77;;;;;;;;;;5101009;28;20450;-63
2024/01/07 13:54:39;;;;;;;13.37;12.47;;;;;;;;;;5102655;28;20554;-64
2024/01/07 13:57:06;;;;;;;14.50;13.30;;;;;;;;;;5094810;28;20493;-64
2024/01/07 13:59:33;;;;;;;11.10;10.30;;;;;;;;;;5093980;28;20490;-63
2024/01/07 14:01:59;;;;;;;10.60;9.93;;;;;;;;;;5103989;28;20470;-64
2024/01/07 14:04:26;;;;;;;10.97;10.37;;;;;;;;;;5096980;28;20525;-64
2024/01/07 14:06:54;;;;;;;11.20;10.50;;;;;;;;;;5091883;28;20566;-64
2024/01/07 14:09:22;;;;;;;11.37;10.67;;;;;;;;;;5098549;28;20458;-64
2024/01/07 14:11:48;;;;;;;11.43;10.63;;;;;;;;;;5108862;28;20968;-64
2024/01/07 14:14:15;;;;;;;11.33;10.30;;;;;;;;;;5093562;28;20471;-63
2024/01/07 14:16:41;;;;;;;11.87;10.97;;;;;;;;;;5089114;28;20494;-63
2024/01/07 14:19:07;;;;;;;10.37;9.80;;;;;;;;;;5100864;28;20790;-63
2024/01/07 14:21:34;;;;;;;12.60;11.70;;;;;;;;;;5095894;28;20979;-63
2024/01/07 14:24:00;;;;;;;12.00;11.10;;;;;;;;;;5096852;28;20472;-63